Portada
METAR-TAF:

METAR-TAF

Aeroports :

Benbecula, Escòcia

latitud: 57-28N, longitud: 007-22W, altitud: 6 m

Observació

L'informe es va fer fa 23 minuts, a les 22:50 UTC
Vent 11 kt del Oest/Nord-Oest
Temperatura 8°C
Humitat 87%
Pressió 1001 hPa
Visibilitat 10 km o més
pluja

METAR: EGPL 062250Z AUTO 30011KT 9999 -RA SCT005/// BKN013/// 08/06 Q1001 RERA

Hora: 23:13 (23:13 UTC)

Pronòstic

L'informe es va fer fa 9 hores i 16 minuts, a les 13:57 UTC
Pronòstic vàlid del 06 a les 15 UTC al 06 a les 17 UTC
Vent 12 kt del Oest/Nord-Oest
Visibilitat 10 km o més
Escasses núvols a una alçada de 800 ft
Núvols disperses a una alçada de 2000 ft
Probabilitat 40% :
Temporalment
l' 06 a les 15 UTC al 06 a les 17 UTC
Visibilitat: 6000 m
Cel ennuvolat a una alçada de 1200 ft
xàfecs de pluja

TAF: EGPL 061357Z 0615/0617 30012KT 9999 FEW008 SCT020 PROB40 TEMPO 0615/0617 6000 SHRA BKN012

Observacions i pronòstics meteorològics de més de 4000 aeroports (METAR i TAF).

Les estacions disponibles són els punts grocs i vermells al mapa.

Posi el ratolí al punt desitjat per veure el nom de l'estació.

Feu clic per veure les observacions i els pronòstics meteorològics.

Per canviar el mapa: feu clic els botons verds amb una creu de color negre per apropar; al botó verd amb un guió per allunyar la imatge; o en les fletxes verdes per a mapes adjacents.


METAR-TAF: